Private Wetterstation Sandau
Wetterdaten: Montag, 07.01.2013
Datum Zeit Temp. A. Feuchte A. Luftdruck Regen Wind Richtung Richtung Taupunkt Windchill
07.01.2013 00:01 7,1 C 94 % 1025,4 hPa 0,0 l/m 6,1 km/h (2 Bft) N 360 6,2 C 6,1 C
07.01.2013 00:06 7,0 C 94 % 1025,5 hPa 0,0 l/m 6,8 km/h (2 Bft) NW 315 6,1 C 5,8 C
07.01.2013 00:11 6,9 C 94 % 1025,6 hPa 0,0 l/m 5,0 km/h (1 Bft) N 360 6,0 C 6,2 C
07.01.2013 00:16 6,9 C 94 % 1025,6 hPa 0,0 l/m 4,3 km/h (1 Bft) N 360 6,0 C 6,9 C
07.01.2013 00:21 6,9 C 94 % 1025,6 hPa 0,0 l/m 4,7 km/h (1 Bft) NW 315 6,0 C 6,3 C
07.01.2013 00:26 6,9 C 94 % 1025,9 hPa 0,0 l/m 7,2 km/h (2 Bft) N-NW 337 6,0 C 5,6 C
07.01.2013 00:31 6,9 C 94 % 1025,9 hPa 0,0 l/m 3,2 km/h (1 Bft) N-NO 22 6,0 C 6,9 C
07.01.2013 00:36 6,9 C 94 % 1025,7 hPa 0,0 l/m 3,6 km/h (1 Bft) N 360 6,0 C 6,9 C
07.01.2013 00:41 6,9 C 94 % 1025,8 hPa 0,0 l/m 4,0 km/h (1 Bft) N 360 6,0 C 6,9 C
07.01.2013 00:46 6,9 C 94 % 1025,8 hPa 0,0 l/m 5,4 km/h (1 Bft) N 360 6,0 C 6,1 C
07.01.2013 00:51 6,9 C 94 % 1025,9 hPa 0,0 l/m 3,2 km/h (1 Bft) N-NO 22 6,0 C 6,9 C
07.01.2013 00:56 6,8 C 94 % 1025,9 hPa 0,0 l/m 7,6 km/h (2 Bft) N 360 5,9 C 5,3 C
07.01.2013 01:01 6,8 C 94 % 1025,8 hPa 0,0 l/m 6,5 km/h (2 Bft) N 360 5,9 C 5,6 C
07.01.2013 01:06 6,8 C 94 % 1026,0 hPa 0,0 l/m 5,4 km/h (1 Bft) N 360 5,9 C 6,0 C
07.01.2013 01:11 6,8 C 94 % 1026,0 hPa 0,0 l/m 4,7 km/h (1 Bft) N 360 5,9 C 6,2 C
07.01.2013 01:16 6,7 C 94 % 1026,0 hPa 0,0 l/m 4,0 km/h (1 Bft) N-NO 22 5,8 C 6,7 C
07.01.2013 01:21 6,8 C 94 % 1025,8 hPa 0,0 l/m 4,0 km/h (1 Bft) N-NO 22 5,9 C 6,8 C
07.01.2013 01:26 6,7 C 94 % 1025,8 hPa 0,0 l/m 9,4 km/h (2 Bft) N-NW 337 5,8 C 4,8 C
07.01.2013 01:31 6,7 C 94 % 1025,8 hPa 0,0 l/m 0,0 km/h (0 Bft) O-NO 67 5,8 C 6,7 C
07.01.2013 01:36 6,7 C 94 % 1025,9 hPa 0,0 l/m 0,0 km/h (0 Bft) NW 315 5,8 C 6,7 C
07.01.2013 01:41 6,7 C 94 % 1026,0 hPa 0,0 l/m 4,0 km/h (1 Bft) N-NW 337 5,8 C 6,7 C
07.01.2013 01:46 6,6 C 94 % 1025,8 hPa 0,0 l/m 3,6 km/h (1 Bft) N-NW 337 5,7 C 6,6 C
07.01.2013 01:51 6,6 C 94 % 1025,9 hPa 0,0 l/m 4,3 km/h (1 Bft) W-NW 292 5,7 C 6,6 C
07.01.2013 01:56 6,6 C 94 % 1025,9 hPa 0,0 l/m 2,9 km/h (1 Bft) W-NW 292 5,7 C 6,6 C
07.01.2013 02:01 6,5 C 94 % 1026,0 hPa 0,0 l/m 5,0 km/h (1 Bft) NW 315 5,6 C 5,8 C
07.01.2013 02:06 6,5 C 94 % 1026,1 hPa 0,0 l/m 6,1 km/h (2 Bft) NW 315 5,6 C 5,4 C
07.01.2013 02:11 6,4 C 94 % 1025,9 hPa 0,0 l/m 5,4 km/h (1 Bft) NW 315 5,5 C 5,5 C
07.01.2013 02:16 6,4 C 94 % 1025,9 hPa 0,0 l/m 2,9 km/h (1 Bft) N-NW 337 5,5 C 6,4 C
07.01.2013 02:21 6,4 C 94 % 1026,0 hPa 0,0 l/m 4,7 km/h (1 Bft) NO 45 5,5 C 5,8 C
07.01.2013 02:26 6,4 C 94 % 1026,1 hPa 0,0 l/m 4,7 km/h (1 Bft) NW 315 5,5 C 5,8 C
07.01.2013 02:31 6,3 C 94 % 1026,2 hPa 0,0 l/m 2,9 km/h (1 Bft) N-NW 337 5,4 C 6,3 C
07.01.2013 02:36 6,3 C 93 % 1026,3 hPa 0,0 l/m 2,9 km/h (1 Bft) NW 315 5,3 C 6,3 C
07.01.2013 02:41 6,3 C 93 % 1026,2 hPa 0,0 l/m 13,3 km/h (3 Bft) NW 315 5,3 C 3,6 C
07.01.2013 02:46 6,3 C 93 % 1026,3 hPa 0,0 l/m 3,6 km/h (1 Bft) NW 315 5,3 C 6,3 C
07.01.2013 02:51 6,3 C 93 % 1026,3 hPa 0,0 l/m 2,2 km/h (1 Bft) NW 315 5,3 C 6,3 C
07.01.2013 02:56 6,2 C 93 % 1026,4 hPa 0,0 l/m 4,7 km/h (1 Bft) NW 315 5,2 C 5,6 C
07.01.2013 03:01 6,2 C 93 % 1026,5 hPa 0,0 l/m 3,6 km/h (1 Bft) N-NO 22 5,2 C 6,2 C
07.01.2013 03:06 6,2 C 93 % 1026,6 hPa 0,0 l/m 3,2 km/h (1 Bft) N 360 5,2 C 6,2 C
07.01.2013 03:11 6,1 C 93 % 1026,8 hPa 0,0 l/m 0,0 km/h (0 Bft) N-NO 22 5,1 C 6,1 C
07.01.2013 03:16 6,1 C 93 % 1026,6 hPa 0,0 l/m 4,0 km/h (1 Bft) N-NW 337 5,1 C 6,1 C
07.01.2013 03:21 6,1 C 93 % 1026,5 hPa 0,0 l/m 4,7 km/h (1 Bft) NW 315 5,1 C 5,4 C
07.01.2013 03:26 6,1 C 93 % 1026,6 hPa 0,0 l/m 5,8 km/h (2 Bft) NW 315 5,1 C 5,1 C
07.01.2013 03:31 6,1 C 93 % 1026,8 hPa 0,0 l/m 4,7 km/h (1 Bft) N-NO 22 5,1 C 5,4 C
07.01.2013 03:36 6,1 C 93 % 1026,8 hPa 0,0 l/m 6,5 km/h (2 Bft) N-NW 337 5,1 C 4,8 C
07.01.2013 03:41 5,9 C 93 % 1026,8 hPa 0,0 l/m 2,5 km/h (1 Bft) N-NW 337 4,9 C 5,9 C
07.01.2013 03:46 5,9 C 93 % 1026,8 hPa 0,0 l/m 5,0 km/h (1 Bft) NO 45 4,9 C 5,1 C
07.01.2013 03:51 5,9 C 93 % 1026,8 hPa 0,0 l/m 7,2 km/h (2 Bft) NW 315 4,9 C 4,4 C
07.01.2013 03:56 5,9 C 93 % 1026,8 hPa 0,0 l/m 9,4 km/h (2 Bft) N-NW 337 4,9 C 3,9 C
07.01.2013 04:01 5,9 C 93 % 1026,8 hPa 0,0 l/m 5,8 km/h (2 Bft) N 360 4,9 C 4,8 C
07.01.2013 04:06 5,8 C 93 % 1026,8 hPa 0,0 l/m 2,9 km/h (1 Bft) N-NO 22 4,8 C 5,8 C
07.01.2013 04:11 5,8 C 93 % 1026,8 hPa 0,0 l/m 7,2 km/h (2 Bft) N-NW 337 4,8 C 4,3 C
07.01.2013 04:16 5,8 C 93 % 1026,7 hPa 0,0 l/m 4,0 km/h (1 Bft) NW 315 4,8 C 5,8 C
07.01.2013 04:21 5,8 C 93 % 1026,7 hPa 0,0 l/m 5,4 km/h (1 Bft) N 360 4,8 C 4,8 C
07.01.2013 04:26 5,8 C 93 % 1026,9 hPa 0,0 l/m 6,8 km/h (2 Bft) N-NO 22 4,8 C 4,4 C
07.01.2013 04:31 5,8 C 93 % 1026,9 hPa 0,0 l/m 6,5 km/h (2 Bft) NO 45 4,8 C 4,5 C
07.01.2013 04:36 5,8 C 93 % 1027,0 hPa 0,0 l/m 5,0 km/h (1 Bft) N-NO 22 4,8 C 5,0 C
07.01.2013 04:41 5,8 C 93 % 1026,9 hPa 0,0 l/m 4,3 km/h (1 Bft) N 360 4,8 C 5,8 C
07.01.2013 04:46 5,8 C 93 % 1026,8 hPa 0,0 l/m 2,2 km/h (1 Bft) N 360 4,8 C 5,8 C
07.01.2013 04:51 5,8 C 93 % 1026,8 hPa 0,0 l/m 3,6 km/h (1 Bft) N-NO 22 4,8 C 5,8 C
07.01.2013 04:56 5,8 C 93 % 1026,7 hPa 0,0 l/m 3,6 km/h (1 Bft) N-NO 22 4,8 C 5,8 C
07.01.2013 05:01 5,6 C 93 % 1026,7 hPa 0,0 l/m 1,1 km/h (1 Bft) N-NO 22 4,6 C 5,6 C
07.01.2013 05:06 5,6 C 93 % 1026,8 hPa 0,0 l/m 4,0 km/h (1 Bft) N-NO 22 4,6 C 5,6 C
07.01.2013 05:11 5,6 C 93 % 1026,7 hPa 0,0 l/m 3,2 km/h (1 Bft) NO 45 4,6 C 5,6 C
07.01.2013 05:16 5,6 C 93 % 1026,8 hPa 0,0 l/m 2,5 km/h (1 Bft) N-NO 22 4,6 C 5,6 C
07.01.2013 05:21 5,6 C 93 % 1026,6 hPa 0,0 l/m 4,7 km/h (1 Bft) N-NO 22 4,6 C 4,9 C
07.01.2013 05:26 5,6 C 93 % 1026,8 hPa 0,0 l/m 6,8 km/h (2 Bft) N 360 4,6 C 4,2 C
07.01.2013 05:31 5,6 C 93 % 1026,6 hPa 0,0 l/m 3,6 km/h (1 Bft) N 360 4,6 C 5,6 C
07.01.2013 05:36 5,5 C 93 % 1026,7 hPa 0,0 l/m 3,6 km/h (1 Bft) N 360 4,5 C 5,5 C
07.01.2013 05:41 5,5 C 93 % 1026,7 hPa 0,0 l/m 4,0 km/h (1 Bft) N 360 4,5 C 5,5 C
07.01.2013 05:46 5,5 C 93 % 1026,8 hPa 0,0 l/m 3,2 km/h (1 Bft) N-NO 22 4,5 C 5,5 C
07.01.2013 05:51 5,5 C 93 % 1026,8 hPa 0,0 l/m 0,0 km/h (0 Bft) N-NO 22 4,5 C 5,5 C
07.01.2013 05:56 5,5 C 93 % 1026,8 hPa 0,0 l/m 4,7 km/h (1 Bft) NW 315 4,5 C 4,8 C
07.01.2013 06:01 5,5 C 93 % 1026,7 hPa 0,0 l/m 9,4 km/h (2 Bft) N-NW 337 4,5 C 3,4 C
07.01.2013 06:06 5,6 C 93 % 1026,6 hPa 0,0 l/m 2,2 km/h (1 Bft) N-NW 337 4,6 C 5,6 C
07.01.2013 06:11 5,6 C 93 % 1026,8 hPa 0,0 l/m 3,6 km/h (1 Bft) W-NW 292 4,6 C 5,6 C
07.01.2013 06:16 5,6 C 93 % 1026,7 hPa 0,0 l/m 1,4 km/h (1 Bft) W-NW 292 4,6 C 5,6 C
07.01.2013 06:21 5,6 C 93 % 1026,9 hPa 0,0 l/m 0,0 km/h (0 Bft) N-NW 337 4,6 C 5,6 C
07.01.2013 06:26 5,6 C 93 % 1026,8 hPa 0,0 l/m 0,0 km/h (0 Bft) N-NW 337 4,6 C 5,6 C
07.01.2013 06:31 5,6 C 93 % 1026,8 hPa 0,0 l/m 2,5 km/h (1 Bft) N-NW 337 4,6 C 5,6 C
07.01.2013 06:36 5,6 C 93 % 1027,0 hPa 0,0 l/m 1,4 km/h (1 Bft) N-NW 337 4,6 C 5,6 C
07.01.2013 06:41 5,6 C 93 % 1027,0 hPa 0,0 l/m 1,1 km/h (1 Bft) N-NW 337 4,6 C 5,6 C
07.01.2013 06:46 5,6 C 93 % 1027,0 hPa 0,0 l/m 2,5 km/h (1 Bft) N-NW 337 4,6 C 5,6 C
07.01.2013 06:51 5,6 C 93 % 1027,1 hPa 0,0 l/m 1,8 km/h (1 Bft) N-NW 337 4,6 C 5,6 C
07.01.2013 06:56 5,6 C 93 % 1027,2 hPa 0,0 l/m 0,0 km/h (0 Bft) NW 315 4,6 C 5,6 C
07.01.2013 07:01 5,6 C 93 % 1027,3 hPa 0,0 l/m 0,0 km/h (0 Bft) N-NW 337 4,6 C 5,6 C
07.01.2013 07:06 5,6 C 93 % 1027,2 hPa 0,0 l/m 0,0 km/h (0 Bft) N-NW 337 4,6 C 5,6 C
07.01.2013 07:11 5,6 C 93 % 1027,3 hPa 0,0 l/m 1,4 km/h (1 Bft) N-NW 337 4,6 C 5,6 C
07.01.2013 07:16 5,6 C 93 % 1027,2 hPa 0,0 l/m 3,2 km/h (1 Bft) N-NW 337 4,6 C 5,6 C
07.01.2013 07:21 5,6 C 93 % 1027,5 hPa 0,0 l/m 0,0 km/h (0 Bft) N-NW 337 4,6 C 5,6 C
07.01.2013 07:26 5,6 C 93 % 1027,6 hPa 0,0 l/m 0,0 km/h (0 Bft) N-NW 337 4,6 C 5,6 C
07.01.2013 07:31 5,6 C 93 % 1027,3 hPa 0,0 l/m 2,5 km/h (1 Bft) N-NW 337 4,6 C 5,6 C
07.01.2013 07:36 5,6 C 93 % 1027,4 hPa 0,0 l/m 0,0 km/h (0 Bft) N-NW 337 4,6 C 5,6 C
07.01.2013 07:41 5,6 C 93 % 1027,4 hPa 0,0 l/m 2,2 km/h (1 Bft) NW 315 4,6 C 5,6 C
07.01.2013 07:46 5,6 C 93 % 1027,3 hPa 0,0 l/m 3,2 km/h (1 Bft) N-NW 337 4,6 C 5,6 C
07.01.2013 07:51 5,5 C 93 % 1027,5 hPa 0,0 l/m 4,0 km/h (1 Bft) N-NO 22 4,5 C 5,5 C
07.01.2013 07:56 5,5 C 93 % 1027,3 hPa 0,0 l/m 0,0 km/h (0 Bft) N-NO 22 4,5 C 5,5 C
07.01.2013 08:01 5,5 C 93 % 1027,5 hPa 0,0 l/m 0,0 km/h (0 Bft) N-NW 337 4,5 C 5,5 C
07.01.2013 08:06 5,5 C 93 % 1027,5 hPa 0,0 l/m 0,0 km/h (0 Bft) N-NW 337 4,5 C 5,5 C
07.01.2013 08:11 5,5 C 93 % 1027,5 hPa 0,0 l/m 2,2 km/h (1 Bft) N-NW 337 4,5 C 5,5 C
07.01.2013 08:16 5,5 C 93 % 1027,6 hPa 0,0 l/m 0,0 km/h (0 Bft) N-NW 337 4,5 C 5,5 C
07.01.2013 08:21 5,5 C 93 % 1027,6 hPa 0,0 l/m 1,8 km/h (1 Bft) N-NW 337 4,5 C 5,5 C
07.01.2013 08:26 5,5 C 93 % 1027,6 hPa 0,0 l/m 2,2 km/h (1 Bft) N-NW 337 4,5 C 5,5 C
07.01.2013 08:31 5,4 C 93 % 1027,8 hPa 0,0 l/m 2,2 km/h (1 Bft) N 360 4,4 C 5,4 C
07.01.2013 08:36 5,4 C 93 % 1027,6 hPa 0,0 l/m 5,0 km/h (1 Bft) N-NO 22 4,4 C 4,5 C
07.01.2013 08:41 5,4 C 93 % 1027,7 hPa 0,0 l/m 2,5 km/h (1 Bft) NO 45 4,4 C 5,4 C
07.01.2013 08:46 5,4 C 93 % 1027,9 hPa 0,0 l/m 1,4 km/h (1 Bft) NO 45 4,4 C 5,4 C
07.01.2013 08:51 5,4 C 93 % 1027,9 hPa 0,0 l/m 0,0 km/h (0 Bft) NO 45 4,4 C 5,4 C
07.01.2013 08:56 5,4 C 93 % 1027,8 hPa 0,0 l/m 2,5 km/h (1 Bft) N 360 4,4 C 5,4 C
07.01.2013 09:01 5,4 C 93 % 1027,9 hPa 0,0 l/m 4,0 km/h (1 Bft) N 360 4,4 C 5,4 C
07.01.2013 09:06 5,4 C 93 % 1027,9 hPa 0,0 l/m 2,2 km/h (1 Bft) N-NO 22 4,4 C 5,4 C
07.01.2013 09:11 5,4 C 93 % 1027,9 hPa 0,0 l/m 3,2 km/h (1 Bft) N 360 4,4 C 5,4 C
07.01.2013 09:16 5,4 C 93 % 1027,9 hPa 0,0 l/m 4,7 km/h (1 Bft) N 360 4,4 C 4,7 C
07.01.2013 09:21 5,4 C 93 % 1028,0 hPa 0,0 l/m 2,2 km/h (1 Bft) N 360 4,4 C 5,4 C
07.01.2013 09:26 5,4 C 93 % 1028,1 hPa 0,0 l/m 3,6 km/h (1 Bft) N-NO 22 4,4 C 5,4 C
07.01.2013 09:31 5,4 C 93 % 1028,0 hPa 0,0 l/m 2,2 km/h (1 Bft) N-NO 22 4,4 C 5,4 C
07.01.2013 09:36 5,4 C 93 % 1028,0 hPa 0,0 l/m 2,2 km/h (1 Bft) N 360 4,4 C 5,4 C
07.01.2013 09:41 5,4 C 93 % 1028,0 hPa 0,0 l/m 4,0 km/h (1 Bft) N-NO 22 4,4 C 5,4 C
07.01.2013 09:46 5,5 C 93 % 1028,0 hPa 0,0 l/m 2,5 km/h (1 Bft) N-NO 22 4,5 C 5,5 C
07.01.2013 09:51 5,5 C 93 % 1028,1 hPa 0,0 l/m 0,0 km/h (0 Bft) N-NO 22 4,5 C 5,5 C
07.01.2013 09:56 5,5 C 93 % 1028,3 hPa 0,0 l/m 2,5 km/h (1 Bft) N-NO 22 4,5 C 5,5 C
07.01.2013 10:01 5,6 C 93 % 1028,2 hPa 0,0 l/m 3,2 km/h (1 Bft) N 360 4,6 C 5,6 C
07.01.2013 10:06 5,6 C 93 % 1028,2 hPa 0,0 l/m 0,0 km/h (0 Bft) N-NO 22 4,6 C 5,6 C
07.01.2013 10:11 5,6 C 93 % 1028,1 hPa 0,0 l/m 1,8 km/h (1 Bft) N-NO 22 4,6 C 5,6 C
07.01.2013 10:16 5,6 C 93 % 1028,2 hPa 0,0 l/m 0,0 km/h (0 Bft) N-NO 22 4,6 C 5,6 C
07.01.2013 10:21 5,6 C 93 % 1028,3 hPa 0,0 l/m 0,0 km/h (0 Bft) N-NO 22 4,6 C 5,6 C
07.01.2013 10:26 5,8 C 93 % 1028,3 hPa 0,0 l/m 0,0 km/h (0 Bft) N-NO 22 4,8 C 5,8 C
07.01.2013 10:31 5,8 C 93 % 1028,3 hPa 0,0 l/m 3,2 km/h (1 Bft) N-NO 22 4,8 C 5,8 C
07.01.2013 10:36 5,8 C 93 % 1028,2 hPa 0,0 l/m 1,8 km/h (1 Bft) N-NO 22 4,8 C 5,8 C
07.01.2013 10:41 5,8 C 93 % 1028,2 hPa 0,0 l/m 0,0 km/h (0 Bft) NO 45 4,8 C 5,8 C
07.01.2013 10:46 5,9 C 93 % 1028,1 hPa 0,0 l/m 0,0 km/h (0 Bft) NO 45 4,9 C 5,9 C
07.01.2013 10:51 6,1 C 93 % 1028,0 hPa 0,0 l/m 0,0 km/h (0 Bft) NO 45 5,1 C 6,1 C
07.01.2013 10:56 6,1 C 93 % 1028,2 hPa 0,0 l/m 0,0 km/h (0 Bft) NO 45 5,1 C 6,1 C
07.01.2013 11:01 6,3 C 93 % 1028,1 hPa 0,0 l/m 0,0 km/h (0 Bft) NO 45 5,3 C 6,3 C
07.01.2013 11:06 6,4 C 93 % 1028,1 hPa 0,0 l/m 0,0 km/h (0 Bft) NO 45 5,4 C 6,4 C
07.01.2013 11:11 6,4 C 93 % 1028,0 hPa 0,0 l/m 0,0 km/h (0 Bft) NO 45 5,4 C 6,4 C
07.01.2013 11:16 6,5 C 93 % 1028,0 hPa 0,0 l/m 0,0 km/h (0 Bft) NO 45 5,5 C 6,5 C
07.01.2013 11:21 6,5 C 92 % 1028,1 hPa 0,0 l/m 0,0 km/h (0 Bft) NO 45 5,3 C 6,5 C
07.01.2013 11:26 6,6 C 92 % 1028,1 hPa 0,0 l/m 2,2 km/h (1 Bft) NW 315 5,4 C 6,6 C
07.01.2013 11:31 6,5 C 92 % 1028,0 hPa 0,0 l/m 0,0 km/h (0 Bft) W-NW 292 5,3 C 6,5 C
07.01.2013 11:36 6,5 C 92 % 1028,1 hPa 0,0 l/m 2,5 km/h (1 Bft) W-NW 292 5,3 C 6,5 C
07.01.2013 11:41 6,4 C 92 % 1027,9 hPa 0,0 l/m 0,0 km/h (0 Bft) W 270 5,2 C 6,4 C
07.01.2013 11:46 6,4 C 92 % 1028,0 hPa 0,0 l/m 0,0 km/h (0 Bft) W 270 5,2 C 6,4 C
07.01.2013 11:51 6,4 C 92 % 1028,1 hPa 0,0 l/m 1,4 km/h (1 Bft) W-NW 292 5,2 C 6,4 C
07.01.2013 11:56 6,5 C 92 % 1028,0 hPa 0,0 l/m 3,2 km/h (1 Bft) W 270 5,3 C 6,5 C
07.01.2013 12:01 6,6 C 92 % 1028,0 hPa 0,0 l/m 0,0 km/h (0 Bft) W-NW 292 5,4 C 6,6 C
07.01.2013 12:06 6,6 C 92 % 1028,0 hPa 0,0 l/m 1,8 km/h (1 Bft) W-NW 292 5,4 C 6,6 C
07.01.2013 12:11 6,6 C 92 % 1028,2 hPa 0,0 l/m 2,5 km/h (1 Bft) W-NW 292 5,4 C 6,6 C
07.01.2013 12:16 6,6 C 92 % 1028,0 hPa 0,0 l/m 0,0 km/h (0 Bft) W-NW 292 5,4 C 6,6 C
07.01.2013 12:21 6,5 C 91 % 1027,9 hPa 0,0 l/m 0,0 km/h (0 Bft) W-NW 292 5,1 C 6,5 C
07.01.2013 12:26 6,5 C 91 % 1027,8 hPa 0,0 l/m 0,0 km/h (0 Bft) W-NW 292 5,1 C 6,5 C
07.01.2013 12:31 6,6 C 91 % 1027,6 hPa 0,0 l/m 0,0 km/h (0 Bft) W-NW 292 5,2 C 6,6 C
07.01.2013 12:36 6,6 C 91 % 1028,0 hPa 0,0 l/m 0,0 km/h (0 Bft) W-NW 292 5,2 C 6,6 C
07.01.2013 12:41 6,6 C 91 % 1027,9 hPa 0,0 l/m 1,4 km/h (1 Bft) W-NW 292 5,2 C 6,6 C
07.01.2013 12:46 6,6 C 91 % 1027,8 hPa 0,0 l/m 0,0 km/h (0 Bft) W-NW 292 5,2 C 6,6 C
07.01.2013 12:51 6,6 C 91 % 1027,8 hPa 0,0 l/m 0,0 km/h (0 Bft) W-NW 292 5,2 C 6,6 C
07.01.2013 12:56 6,7 C 91 % 1027,7 hPa 0,0 l/m 0,0 km/h (0 Bft) W-NW 292 5,3 C 6,7 C
07.01.2013 13:01 6,8 C 91 % 1027,6 hPa 0,0 l/m 1,4 km/h (1 Bft) W-NW 292 5,4 C 6,8 C
07.01.2013 13:06 6,8 C 91 % 1027,6 hPa 0,0 l/m 0,0 km/h (0 Bft) W-NW 292 5,4 C 6,8 C
07.01.2013 13:11 6,8 C 91 % 1027,5 hPa 0,0 l/m 0,0 km/h (0 Bft) W-NW 292 5,4 C 6,8 C
07.01.2013 13:16 6,8 C 91 % 1027,5 hPa 0,0 l/m 0,0 km/h (0 Bft) W-NW 292 5,4 C 6,8 C
07.01.2013 13:21 6,8 C 90 % 1027,3 hPa 0,0 l/m 1,1 km/h (1 Bft) W-NW 292 5,3 C 6,8 C
07.01.2013 13:26 6,8 C 90 % 1027,5 hPa 0,0 l/m 0,0 km/h (0 Bft) W 270 5,3 C 6,8 C
07.01.2013 13:31 6,7 C 90 % 1027,7 hPa 0,0 l/m 2,2 km/h (1 Bft) W-NW 292 5,2 C 6,7 C
07.01.2013 13:36 6,6 C 90 % 1027,6 hPa 0,0 l/m 1,1 km/h (1 Bft) W-NW 292 5,1 C 6,6 C
07.01.2013 13:41 6,6 C 91 % 1027,4 hPa 0,0 l/m 1,4 km/h (1 Bft) W-NW 292 5,2 C 6,6 C
07.01.2013 13:46 6,6 C 91 % 1027,4 hPa 0,0 l/m 0,0 km/h (0 Bft) W-NW 292 5,2 C 6,6 C
07.01.2013 13:51 6,6 C 91 % 1027,6 hPa 0,0 l/m 0,0 km/h (0 Bft) W-NW 292 5,2 C 6,6 C
07.01.2013 13:56 6,5 C 91 % 1027,6 hPa 0,0 l/m 0,0 km/h (0 Bft) W-NW 292 5,1 C 6,5 C
07.01.2013 14:01 6,6 C 91 % 1027,4 hPa 0,0 l/m 1,4 km/h (1 Bft) W-NW 292 5,2 C 6,6 C
07.01.2013 14:06 6,6 C 91 % 1027,5 hPa 0,0 l/m 1,1 km/h (1 Bft) W-NW 292 5,2 C 6,6 C
07.01.2013 14:11 6,5 C 91 % 1027,6 hPa 0,0 l/m 2,2 km/h (1 Bft) W-NW 292 5,1 C 6,5 C
07.01.2013 14:16 6,5 C 91 % 1027,6 hPa 0,0 l/m 1,4 km/h (1 Bft) W-NW 292 5,1 C 6,5 C
07.01.2013 14:21 6,5 C 91 % 1027,5 hPa 0,0 l/m 1,8 km/h (1 Bft) W 270 5,1 C 6,5 C
07.01.2013 14:26 6,5 C 91 % 1027,6 hPa 0,0 l/m 3,2 km/h (1 Bft) W 270 5,1 C 6,5 C
07.01.2013 14:31 6,4 C 91 % 1027,6 hPa 0,0 l/m 4,7 km/h (1 Bft) W 270 5,0 C 5,8 C
07.01.2013 14:36 6,4 C 91 % 1027,5 hPa 0,0 l/m 5,0 km/h (1 Bft) W 270 5,0 C 5,7 C
07.01.2013 14:41 6,4 C 91 % 1027,7 hPa 0,0 l/m 4,0 km/h (1 Bft) W 270 5,0 C 6,4 C
07.01.2013 14:46 6,4 C 92 % 1027,6 hPa 0,0 l/m 10,8 km/h (2 Bft) W 270 5,2 C 4,2 C
07.01.2013 14:51 6,4 C 92 % 1027,7 hPa 0,0 l/m 8,6 km/h (2 Bft) W-SW 247 5,2 C 4,6 C
07.01.2013 14:56 6,3 C 91 % 1027,7 hPa 0,0 l/m 6,1 km/h (2 Bft) W-NW 292 4,9 C 5,2 C
07.01.2013 15:01 6,3 C 91 % 1027,9 hPa 0,0 l/m 3,2 km/h (1 Bft) W-SW 247 4,9 C 6,3 C
07.01.2013 15:06 6,2 C 91 % 1027,9 hPa 0,0 l/m 3,2 km/h (1 Bft) W 270 4,8 C 6,2 C
07.01.2013 15:11 6,2 C 91 % 1027,7 hPa 0,0 l/m 5,8 km/h (2 Bft) W 270 4,8 C 5,2 C
07.01.2013 15:16 6,1 C 91 % 1027,5 hPa 0,0 l/m 1,1 km/h (1 Bft) W 270 4,7 C 6,1 C
07.01.2013 15:21 6,1 C 92 % 1027,5 hPa 0,0 l/m 2,2 km/h (1 Bft) W 270 4,9 C 6,1 C
07.01.2013 15:26 6,1 C 92 % 1027,4 hPa 0,0 l/m 4,0 km/h (1 Bft) W 270 4,9 C 6,1 C
07.01.2013 15:31 6,1 C 92 % 1027,3 hPa 0,0 l/m 1,4 km/h (1 Bft) W 270 4,9 C 6,1 C
07.01.2013 15:36 6,1 C 92 % 1027,2 hPa 0,0 l/m 0,0 km/h (0 Bft) W 270 4,9 C 6,1 C
07.01.2013 15:41 6,1 C 92 % 1027,2 hPa 0,0 l/m 0,0 km/h (0 Bft) W 270 4,9 C 6,1 C
07.01.2013 15:46 6,1 C 92 % 1027,2 hPa 0,0 l/m 0,0 km/h (0 Bft) W 270 4,9 C 6,1 C
07.01.2013 15:51 6,1 C 92 % 1027,2 hPa 0,0 l/m 0,0 km/h (0 Bft) W 270 4,9 C 6,1 C
07.01.2013 15:56 6,1 C 92 % 1027,3 hPa 0,0 l/m 1,1 km/h (1 Bft) W 270 4,9 C 6,1 C
07.01.2013 16:01 6,1 C 92 % 1027,3 hPa 0,0 l/m 0,0 km/h (0 Bft) W 270 4,9 C 6,1 C
07.01.2013 16:06 6,1 C 92 % 1027,4 hPa 0,0 l/m 0,0 km/h (0 Bft) W 270 4,9 C 6,1 C
07.01.2013 16:11 6,1 C 92 % 1027,3 hPa 0,0 l/m 0,0 km/h (0 Bft) W 270 4,9 C 6,1 C
07.01.2013 16:16 6,1 C 92 % 1027,4 hPa 0,0 l/m 0,0 km/h (0 Bft) W 270 4,9 C 6,1 C
07.01.2013 16:21 6,1 C 92 % 1027,3 hPa 0,0 l/m 1,8 km/h (1 Bft) W 270 4,9 C 6,1 C
07.01.2013 16:26 6,1 C 92 % 1027,6 hPa 0,0 l/m 2,9 km/h (1 Bft) W-SW 247 4,9 C 6,1 C
07.01.2013 16:31 6,1 C 92 % 1027,5 hPa 0,0 l/m 3,2 km/h (1 Bft) W-NW 292 4,9 C 6,1 C
07.01.2013 16:36 6,1 C 92 % 1027,6 hPa 0,0 l/m 0,0 km/h (0 Bft) W 270 4,9 C 6,1 C
07.01.2013 16:41 6,1 C 92 % 1027,8 hPa 0,0 l/m 0,0 km/h (0 Bft) W 270 4,9 C 6,1 C
07.01.2013 16:46 6,0 C 92 % 1027,8 hPa 0,0 l/m 3,6 km/h (1 Bft) W 270 4,8 C 6,0 C
07.01.2013 16:51 6,0 C 92 % 1027,5 hPa 0,0 l/m 2,9 km/h (1 Bft) W 270 4,8 C 6,0 C
07.01.2013 16:56 5,9 C 92 % 1027,5 hPa 0,0 l/m 2,2 km/h (1 Bft) W 270 4,7 C 5,9 C
07.01.2013 17:01 5,9 C 92 % 1027,5 hPa 0,0 l/m 0,0 km/h (0 Bft) W 270 4,7 C 5,9 C
07.01.2013 17:06 5,9 C 92 % 1027,6 hPa 0,0 l/m 4,7 km/h (1 Bft) W 270 4,7 C 5,2 C
07.01.2013 17:11 5,9 C 92 % 1027,4 hPa 0,0 l/m 1,8 km/h (1 Bft) W 270 4,7 C 5,9 C
07.01.2013 17:16 5,9 C 92 % 1027,4 hPa 0,0 l/m 2,2 km/h (1 Bft) W 270 4,7 C 5,9 C
07.01.2013 17:21 5,9 C 92 % 1027,3 hPa 0,0 l/m 2,2 km/h (1 Bft) W 270 4,7 C 5,9 C
07.01.2013 17:26 5,9 C 92 % 1027,3 hPa 0,0 l/m 1,8 km/h (1 Bft) W 270 4,7 C 5,9 C
07.01.2013 17:31 5,9 C 92 % 1027,4 hPa 0,0 l/m 0,0 km/h (0 Bft) W 270 4,7 C 5,9 C
07.01.2013 17:36 5,9 C 92 % 1027,3 hPa 0,0 l/m 0,0 km/h (0 Bft) W 270 4,7 C 5,9 C
07.01.2013 17:41 5,9 C 92 % 1027,2 hPa 0,0 l/m 1,4 km/h (1 Bft) W 270 4,7 C 5,9 C
07.01.2013 17:46 5,9 C 92 % 1027,3 hPa 0,0 l/m 1,4 km/h (1 Bft) W 270 4,7 C 5,9 C
07.01.2013 17:51 5,9 C 92 % 1027,2 hPa 0,0 l/m 1,4 km/h (1 Bft) W 270 4,7 C 5,9 C
07.01.2013 17:56 5,9 C 92 % 1027,2 hPa 0,0 l/m 0,0 km/h (0 Bft) W 270 4,7 C 5,9 C
07.01.2013 18:01 5,9 C 92 % 1027,2 hPa 0,0 l/m 2,9 km/h (1 Bft) W 270 4,7 C 5,9 C
07.01.2013 18:06 5,9 C 92 % 1027,2 hPa 0,0 l/m 0,0 km/h (0 Bft) W 270 4,7 C 5,9 C
07.01.2013 18:11 5,9 C 92 % 1027,2 hPa 0,0 l/m 3,6 km/h (1 Bft) W 270 4,7 C 5,9 C
07.01.2013 18:16 5,9 C 92 % 1027,1 hPa 0,0 l/m 1,8 km/h (1 Bft) W 270 4,7 C 5,9 C
07.01.2013 18:21 5,9 C 92 % 1027,2 hPa 0,0 l/m 0,0 km/h (0 Bft) W 270 4,7 C 5,9 C
07.01.2013 18:26 5,8 C 92 % 1027,2 hPa 0,0 l/m 1,8 km/h (1 Bft) W 270 4,6 C 5,8 C
07.01.2013 18:31 5,8 C 92 % 1027,3 hPa 0,0 l/m 1,4 km/h (1 Bft) W 270 4,6 C 5,8 C
07.01.2013 18:36 5,8 C 92 % 1027,2 hPa 0,0 l/m 2,2 km/h (1 Bft) W 270 4,6 C 5,8 C
07.01.2013 18:41 5,8 C 92 % 1027,3 hPa 0,0 l/m 1,8 km/h (1 Bft) W 270 4,6 C 5,8 C
07.01.2013 18:46 5,8 C 92 % 1027,3 hPa 0,0 l/m 3,6 km/h (1 Bft) W 270 4,6 C 5,8 C
07.01.2013 18:51 5,8 C 92 % 1027,5 hPa 0,0 l/m 4,7 km/h (1 Bft) W 270 4,6 C 5,1 C
07.01.2013 18:56 5,8 C 92 % 1027,6 hPa 0,0 l/m 3,6 km/h (1 Bft) W 270 4,6 C 5,8 C
07.01.2013 19:01 5,8 C 92 % 1027,7 hPa 0,0 l/m 2,9 km/h (1 Bft) W 270 4,6 C 5,8 C
07.01.2013 19:06 5,8 C 92 % 1027,7 hPa 0,0 l/m 2,5 km/h (1 Bft) W 270 4,6 C 5,8 C
07.01.2013 19:11 5,8 C 92 % 1027,6 hPa 0,0 l/m 4,7 km/h (1 Bft) W 270 4,6 C 5,1 C
07.01.2013 19:16 5,8 C 92 % 1027,5 hPa 0,0 l/m 6,1 km/h (2 Bft) W 270 4,6 C 4,6 C
07.01.2013 19:21 5,8 C 92 % 1027,5 hPa 0,0 l/m 6,1 km/h (2 Bft) W 270 4,6 C 4,6 C
07.01.2013 19:26 5,7 C 92 % 1027,4 hPa 0,0 l/m 5,0 km/h (1 Bft) W 270 4,5 C 4,9 C
07.01.2013 19:31 5,6 C 92 % 1027,4 hPa 0,0 l/m 6,8 km/h (2 Bft) W 270 4,4 C 4,2 C
07.01.2013 19:36 5,6 C 92 % 1027,3 hPa 0,0 l/m 2,2 km/h (1 Bft) W 270 4,4 C 5,6 C
07.01.2013 19:41 5,6 C 92 % 1027,2 hPa 0,0 l/m 1,4 km/h (1 Bft) W 270 4,4 C 5,6 C
07.01.2013 19:46 5,6 C 92 % 1027,2 hPa 0,0 l/m 2,5 km/h (1 Bft) W 270 4,4 C 5,6 C
07.01.2013 19:51 5,6 C 92 % 1027,2 hPa 0,0 l/m 2,5 km/h (1 Bft) W 270 4,4 C 5,6 C
07.01.2013 19:56 5,6 C 92 % 1027,1 hPa 0,0 l/m 1,8 km/h (1 Bft) W 270 4,4 C 5,6 C
07.01.2013 20:01 5,6 C 92 % 1027,1 hPa 0,0 l/m 2,2 km/h (1 Bft) W 270 4,4 C 5,6 C
07.01.2013 20:06 5,6 C 92 % 1027,2 hPa 0,0 l/m 4,0 km/h (1 Bft) W 270 4,4 C 5,6 C
07.01.2013 20:11 5,6 C 92 % 1027,1 hPa 0,0 l/m 0,0 km/h (0 Bft) W 270 4,4 C 5,6 C
07.01.2013 20:16 5,6 C 92 % 1027,3 hPa 0,0 l/m 0,0 km/h (0 Bft) W 270 4,4 C 5,6 C
07.01.2013 20:21 5,6 C 92 % 1027,2 hPa 0,0 l/m 2,2 km/h (1 Bft) W 270 4,4 C 5,6 C
07.01.2013 20:26 5,6 C 92 % 1027,2 hPa 0,0 l/m 2,2 km/h (1 Bft) W 270 4,4 C 5,6 C
07.01.2013 20:31 5,6 C 92 % 1027,0 hPa 0,0 l/m 2,2 km/h (1 Bft) W 270 4,4 C 5,6 C
07.01.2013 20:36 5,6 C 92 % 1027,2 hPa 0,0 l/m 1,8 km/h (1 Bft) W 270 4,4 C 5,6 C
07.01.2013 20:41 5,6 C 92 % 1027,2 hPa 0,0 l/m 2,2 km/h (1 Bft) W 270 4,4 C 5,6 C
07.01.2013 20:46 5,6 C 92 % 1027,0 hPa 0,0 l/m 1,4 km/h (1 Bft) W 270 4,4 C 5,6 C
07.01.2013 20:51 5,6 C 92 % 1026,9 hPa 0,0 l/m 0,0 km/h (0 Bft) W 270 4,4 C 5,6 C
07.01.2013 20:56 5,6 C 92 % 1026,9 hPa 0,0 l/m 3,2 km/h (1 Bft) W 270 4,4 C 5,6 C
07.01.2013 21:01 5,6 C 92 % 1027,0 hPa 0,0 l/m 2,5 km/h (1 Bft) W 270 4,4 C 5,6 C
07.01.2013 21:06 5,6 C 92 % 1027,1 hPa 0,0 l/m 1,8 km/h (1 Bft) W 270 4,4 C 5,6 C
07.01.2013 21:11 5,6 C 92 % 1027,0 hPa 0,0 l/m 2,9 km/h (1 Bft) W 270 4,4 C 5,6 C
07.01.2013 21:16 5,6 C 92 % 1026,9 hPa 0,0 l/m 2,9 km/h (1 Bft) W 270 4,4 C 5,6 C
07.01.2013 21:21 5,6 C 92 % 1027,0 hPa 0,0 l/m 2,5 km/h (1 Bft) W 270 4,4 C 5,6 C
07.01.2013 21:26 5,6 C 92 % 1026,9 hPa 0,0 l/m 0,0 km/h (0 Bft) W 270 4,4 C 5,6 C
07.01.2013 21:31 5,6 C 92 % 1026,8 hPa 0,0 l/m 0,0 km/h (0 Bft) W 270 4,4 C 5,6 C
07.01.2013 21:36 5,6 C 92 % 1026,9 hPa 0,0 l/m 2,5 km/h (1 Bft) W 270 4,4 C 5,6 C
07.01.2013 21:41 5,6 C 92 % 1026,7 hPa 0,0 l/m 0,0 km/h (0 Bft) W 270 4,4 C 5,6 C
07.01.2013 21:46 5,6 C 92 % 1026,6 hPa 0,0 l/m 0,0 km/h (0 Bft) W 270 4,4 C 5,6 C
07.01.2013 21:51 5,6 C 92 % 1026,5 hPa 0,0 l/m 4,0 km/h (1 Bft) W 270 4,4 C 5,6 C
07.01.2013 21:56 5,6 C 92 % 1026,5 hPa 0,0 l/m 1,8 km/h (1 Bft) W 270 4,4 C 5,6 C
07.01.2013 22:01 5,6 C 92 % 1026,5 hPa 0,0 l/m 4,0 km/h (1 Bft) SW 225 4,4 C 5,6 C
07.01.2013 22:06 5,6 C 92 % 1026,6 hPa 0,0 l/m 0,0 km/h (0 Bft) S-SW 202 4,4 C 5,6 C
07.01.2013 22:11 5,6 C 92 % 1026,5 hPa 0,0 l/m 2,5 km/h (1 Bft) W-SW 247 4,4 C 5,6 C
07.01.2013 22:16 5,6 C 92 % 1026,2 hPa 0,0 l/m 0,0 km/h (0 Bft) S-SW 202 4,4 C 5,6 C
07.01.2013 22:21 5,5 C 92 % 1026,4 hPa 0,0 l/m 1,4 km/h (1 Bft) S 180 4,3 C 5,5 C
07.01.2013 22:26 5,6 C 92 % 1026,2 hPa 0,0 l/m 1,4 km/h (1 Bft) S-SO 157 4,4 C 5,6 C
07.01.2013 22:31 5,6 C 92 % 1026,3 hPa 0,0 l/m 1,4 km/h (1 Bft) S 180 4,4 C 5,6 C
07.01.2013 22:36 5,6 C 92 % 1026,3 hPa 0,0 l/m 0,0 km/h (0 Bft) S-SW 202 4,4 C 5,6 C
07.01.2013 22:41 5,6 C 92 % 1026,3 hPa 0,0 l/m 3,2 km/h (1 Bft) S 180 4,4 C 5,6 C
07.01.2013 22:46 5,6 C 92 % 1026,2 hPa 0,0 l/m 1,4 km/h (1 Bft) SW 225 4,4 C 5,6 C
07.01.2013 22:51 5,6 C 92 % 1026,2 hPa 0,0 l/m 2,5 km/h (1 Bft) S-SW 202 4,4 C 5,6 C
07.01.2013 22:56 5,6 C 92 % 1026,4 hPa 0,0 l/m 6,1 km/h (2 Bft) W-SW 247 4,4 C 4,4 C
07.01.2013 23:01 5,6 C 92 % 1026,3 hPa 0,0 l/m 5,0 km/h (1 Bft) S-SW 202 4,4 C 4,8 C
07.01.2013 23:06 5,6 C 93 % 1026,3 hPa 0,0 l/m 2,5 km/h (1 Bft) S-SW 202 4,6 C 5,6 C
07.01.2013 23:11 5,6 C 93 % 1026,5 hPa 0,0 l/m 4,3 km/h (1 Bft) S-SW 202 4,6 C 5,6 C
07.01.2013 23:16 5,6 C 93 % 1026,1 hPa 0,0 l/m 0,0 km/h (0 Bft) W-SW 247 4,6 C 5,6 C
07.01.2013 23:21 5,6 C 93 % 1026,2 hPa 0,0 l/m 2,2 km/h (1 Bft) S-SW 202 4,6 C 5,6 C
07.01.2013 23:26 5,6 C 93 % 1026,1 hPa 0,0 l/m 4,7 km/h (1 Bft) SW 225 4,6 C 4,9 C
07.01.2013 23:31 5,6 C 93 % 1026,2 hPa 0,0 l/m 6,1 km/h (2 Bft) S-SW 202 4,6 C 4,4 C
07.01.2013 23:36 5,6 C 93 % 1026,2 hPa 0,0 l/m 2,5 km/h (1 Bft) S-SW 202 4,6 C 5,6 C
07.01.2013 23:41 5,6 C 93 % 1025,9 hPa 0,0 l/m 1,8 km/h (1 Bft) S-SW 202 4,6 C 5,6 C
07.01.2013 23:46 5,6 C 93 % 1025,9 hPa 0,0 l/m 4,3 km/h (1 Bft) S-SW 202 4,6 C 5,6 C
07.01.2013 23:51 5,6 C 93 % 1025,9 hPa 0,0 l/m 4,3 km/h (1 Bft) S-SW 202 4,6 C 5,6 C
07.01.2013 23:56 5,6 C 93 % 1025,9 hPa 0,0 l/m 5,0 km/h (1 Bft) W-SW 247 4,6 C 4,8 C
_ Min-Zeit 08:31 13:21 00:01 - 01:31 - - 22:21 06:01
Minimum _ 5,4 C 90 % 1025,4 hPa - 0,0 km/h (0 Bft) - - 4,3 C 3,4 C
_ Max-Zeit 00:01 00:01 09:56 00:01 02:41 - - 00:01 00:16
Maximum _ 7,1 C 94 % 1028,3 hPa 0,0 l/m 13,3 km/h
NW (3 Bft)
- - 6,2 C 6,9 C
Durchschnitt _ 6,0 C 92 % 1027,1 hPa #0,0 l/m 2,6 km/h (1 Bft) W - 4,8 C 5,8 C
(c) by David Heller